createdAt,value
2023-05-19T00:00:30.975Z,56.20
2023-05-19T00:02:58.359Z,55.90
2023-05-19T00:05:25.242Z,56.00
2023-05-19T00:07:52.805Z,55.90
2023-05-19T00:10:19.964Z,55.90
2023-05-19T00:12:47.165Z,56.10
2023-05-19T00:15:14.441Z,55.50
2023-05-19T00:17:42.544Z,55.20
2023-05-19T00:20:09.953Z,55.40
2023-05-19T00:22:37.112Z,55.50
2023-05-19T00:25:04.146Z,55.60
2023-05-19T00:27:31.091Z,55.70
2023-05-19T00:29:57.853Z,55.40
2023-05-19T00:32:24.749Z,55.70
2023-05-19T00:34:51.606Z,55.60
2023-05-19T00:37:18.469Z,55.50
2023-05-19T00:39:45.357Z,55.60
2023-05-19T00:42:12.162Z,55.60
2023-05-19T00:44:41.748Z,55.70
2023-05-19T00:47:09.214Z,55.20
2023-05-19T00:49:36.274Z,55.30
2023-05-19T00:52:06.079Z,55.20
2023-05-19T00:54:34.738Z,55.10
2023-05-19T00:57:01.796Z,55.20
2023-05-19T00:59:28.639Z,55.20
2023-05-19T01:01:55.839Z,55.10
2023-05-19T01:04:25.648Z,55.30
2023-05-19T01:06:55.900Z,55.00
2023-05-19T01:09:22.988Z,55.10
2023-05-19T01:11:53.503Z,55.10
2023-05-19T01:14:21.514Z,55.40
2023-05-19T01:17:05.688Z,55.20
2023-05-19T01:20:02.230Z,55.40
2023-05-19T01:23:07.556Z,0.00
2023-05-19T01:26:04.504Z,55.40
2023-05-19T01:29:16.704Z,55.60
2023-05-19T01:31:47.124Z,55.30
2023-05-19T01:34:15.889Z,55.60
2023-05-19T01:36:44.953Z,55.30
2023-05-19T01:39:13.124Z,55.60
2023-05-19T01:41:42.481Z,55.70
2023-05-19T01:44:09.933Z,55.70
2023-05-19T01:46:38.132Z,0.00
2023-05-19T01:49:06.250Z,55.50
2023-05-19T01:51:33.055Z,55.80
2023-05-19T01:53:59.949Z,55.60
2023-05-19T01:56:49.928Z,55.70
2023-05-19T02:00:00.437Z,55.50
2023-05-19T02:02:40.569Z,55.90
2023-05-19T02:05:28.717Z,55.70
2023-05-19T02:08:19.254Z,56.00
2023-05-19T02:10:54.844Z,55.80
2023-05-19T02:13:26.747Z,56.10
2023-05-19T02:15:58.479Z,56.00
2023-05-19T02:18:25.502Z,56.10
2023-05-19T02:20:52.269Z,56.10
2023-05-19T02:23:19.131Z,56.20
2023-05-19T02:25:46.020Z,56.30
2023-05-19T02:28:12.812Z,56.30
2023-05-19T02:30:39.546Z,56.50
2023-05-19T02:33:06.469Z,0.00
2023-05-19T02:35:33.796Z,56.50
2023-05-19T02:38:00.634Z,56.70
2023-05-19T02:40:27.824Z,56.90
2023-05-19T02:42:54.669Z,56.70
2023-05-19T02:45:21.495Z,56.70
2023-05-19T02:47:48.284Z,56.70
2023-05-19T02:50:15.054Z,56.80
2023-05-19T02:52:41.791Z,56.90
2023-05-19T02:55:08.885Z,57.00
2023-05-19T02:57:35.831Z,57.20
2023-05-19T03:00:02.718Z,57.30
2023-05-19T03:02:29.650Z,57.50
2023-05-19T03:04:56.575Z,57.40
2023-05-19T03:07:25.280Z,57.60
2023-05-19T03:09:53.002Z,57.50
2023-05-19T03:12:19.813Z,57.50
2023-05-19T03:14:47.572Z,57.50
2023-05-19T03:17:14.534Z,57.40
2023-05-19T03:19:41.619Z,57.40
2023-05-19T03:22:08.371Z,57.40
2023-05-19T03:24:35.245Z,57.30
2023-05-19T03:27:02.619Z,57.60
2023-05-19T03:29:29.379Z,57.50
2023-05-19T03:31:56.113Z,57.50
2023-05-19T03:34:22.886Z,57.60
2023-05-19T03:36:50.931Z,57.50
2023-05-19T03:39:17.725Z,57.30
2023-05-19T03:41:44.565Z,57.50
2023-05-19T03:44:11.339Z,57.90
2023-05-19T03:46:38.159Z,57.80
2023-05-19T03:49:04.940Z,57.80
2023-05-19T03:51:31.696Z,58.20
2023-05-19T03:53:58.500Z,57.90
2023-05-19T03:56:27.842Z,57.70
2023-05-19T03:58:55.386Z,57.50
2023-05-19T04:01:22.287Z,58.00
2023-05-19T04:03:49.154Z,58.50
2023-05-19T04:06:15.976Z,58.70
2023-05-19T04:08:44.252Z,58.90
2023-05-19T04:11:11.278Z,59.30
2023-05-19T04:13:38.074Z,59.70
2023-05-19T04:16:05.423Z,60.00
2023-05-19T04:18:32.379Z,60.20
2023-05-19T04:20:59.178Z,59.90
2023-05-19T04:23:26.411Z,59.70
2023-05-19T04:25:54.312Z,59.80
2023-05-19T04:28:21.641Z,59.80
2023-05-19T04:30:48.441Z,59.90
2023-05-19T04:33:15.265Z,60.00
2023-05-19T04:35:43.795Z,60.10
2023-05-19T04:38:12.041Z,60.00
2023-05-19T04:40:40.390Z,60.20
2023-05-19T04:43:07.396Z,60.10
2023-05-19T04:45:34.332Z,60.10
2023-05-19T04:48:02.035Z,59.60
2023-05-19T04:50:31.066Z,59.40
2023-05-19T04:52:59.314Z,59.10
2023-05-19T04:55:26.306Z,59.40
2023-05-19T04:57:53.083Z,59.10
2023-05-19T05:00:20.815Z,59.20
2023-05-19T05:02:49.167Z,59.10
2023-05-19T05:05:16.252Z,58.80
2023-05-19T05:07:43.196Z,58.80
2023-05-19T05:10:10.544Z,58.40
2023-05-19T05:12:37.604Z,58.40
2023-05-19T05:15:06.975Z,58.10
2023-05-19T05:17:35.420Z,57.90
2023-05-19T05:20:05.909Z,57.80
2023-05-19T05:22:33.533Z,57.50
2023-05-19T05:25:01.934Z,57.50
2023-05-19T05:27:28.860Z,57.60
2023-05-19T05:29:57.416Z,57.70
2023-05-19T05:32:25.633Z,57.60
2023-05-19T05:34:52.554Z,57.60
2023-05-19T05:37:19.362Z,57.50
2023-05-19T05:39:46.274Z,57.60
2023-05-19T05:42:13.111Z,57.40
2023-05-19T05:44:39.915Z,57.60
2023-05-19T05:47:07.203Z,57.50
2023-05-19T05:49:38.005Z,57.70
2023-05-19T05:52:06.793Z,57.90
2023-05-19T05:54:34.228Z,57.90
2023-05-19T05:59:29.579Z,57.90
2023-05-19T06:01:56.402Z,58.10
2023-05-19T06:04:23.227Z,57.30
2023-05-19T06:06:49.961Z,57.20
2023-05-19T06:09:17.054Z,57.40
2023-05-19T06:11:43.994Z,57.30
2023-05-19T06:14:10.889Z,57.30
2023-05-19T06:16:37.889Z,57.40
2023-05-19T06:19:04.900Z,56.90
2023-05-19T06:21:31.923Z,56.70
2023-05-19T06:23:58.630Z,56.60
2023-05-19T06:26:25.524Z,56.40
2023-05-19T06:28:52.304Z,56.40
2023-05-19T06:31:19.082Z,56.50
2023-05-19T06:33:45.920Z,56.00
2023-05-19T06:36:13.851Z,55.80
2023-05-19T06:38:40.714Z,55.70
2023-05-19T06:41:07.704Z,55.90
2023-05-19T06:43:34.487Z,56.10
2023-05-19T06:46:01.320Z,56.30
2023-05-19T06:48:28.198Z,56.00
2023-05-19T06:50:55.094Z,55.90
2023-05-19T06:53:22.170Z,55.60
2023-05-19T06:55:59.361Z,55.20
2023-05-19T06:58:27.302Z,55.20
2023-05-19T07:00:54.072Z,55.20
2023-05-19T07:03:20.982Z,55.30
2023-05-19T07:05:47.983Z,55.10
2023-05-19T07:08:14.752Z,55.20
2023-05-19T07:10:41.561Z,55.30
2023-05-19T07:13:08.341Z,55.80
2023-05-19T07:15:35.207Z,55.10
2023-05-19T07:18:02.105Z,55.00
2023-05-19T07:20:28.950Z,55.00
2023-05-19T07:22:55.934Z,54.80
2023-05-19T07:25:22.826Z,54.50
2023-05-19T07:27:49.610Z,54.90
2023-05-19T07:30:16.425Z,54.90
2023-05-19T07:32:43.277Z,54.80
2023-05-19T07:35:13.212Z,55.20
2023-05-19T07:37:40.026Z,55.00
2023-05-19T07:40:08.016Z,54.50
2023-05-19T07:42:35.021Z,54.60
2023-05-19T07:45:03.261Z,54.50
2023-05-19T07:47:30.931Z,54.40
2023-05-19T07:49:57.783Z,54.40
2023-05-19T07:52:24.662Z,54.30
2023-05-19T07:54:51.469Z,54.50
2023-05-19T07:57:19.082Z,54.30
2023-05-19T07:59:46.004Z,54.40
2023-05-19T08:02:12.974Z,54.40
2023-05-19T08:04:39.830Z,54.40
2023-05-19T08:07:06.798Z,54.40
2023-05-19T08:09:33.619Z,54.60
2023-05-19T08:12:01.658Z,54.70
2023-05-19T08:14:28.468Z,54.90
2023-05-19T08:16:55.261Z,54.60
2023-05-19T08:19:22.080Z,54.10
2023-05-19T08:21:49.690Z,54.80
2023-05-19T08:24:16.616Z,54.90
2023-05-19T08:26:44.514Z,55.60
2023-05-19T08:29:11.343Z,57.00
2023-05-19T08:31:38.240Z,57.00
2023-05-19T08:34:05.118Z,56.60
2023-05-19T08:36:32.070Z,56.10
2023-05-19T08:38:58.971Z,56.10
2023-05-19T08:41:26.373Z,55.60
2023-05-19T08:43:53.293Z,55.00
2023-05-19T08:46:24.041Z,55.20
2023-05-19T08:48:58.640Z,55.20
2023-05-19T08:51:58.111Z,55.20
2023-05-19T08:54:30.315Z,55.00
2023-05-19T08:56:57.790Z,55.20
2023-05-19T08:59:24.819Z,55.40
2023-05-19T09:01:53.260Z,55.00
2023-05-19T09:04:20.872Z,54.60
2023-05-19T09:06:48.306Z,54.50
2023-05-19T09:09:15.991Z,54.70
2023-05-19T09:11:46.496Z,55.00
2023-05-19T09:14:13.228Z,54.70
2023-05-19T09:16:40.871Z,54.90
2023-05-19T09:19:15.661Z,54.90
2023-05-19T09:21:43.623Z,55.20
2023-05-19T09:24:11.507Z,54.80
2023-05-19T09:26:42.560Z,54.60
2023-05-19T09:29:13.912Z,54.70
2023-05-19T09:31:51.886Z,55.00
2023-05-19T09:34:19.180Z,54.90
2023-05-19T09:36:49.581Z,55.00
2023-05-19T09:39:20.109Z,55.00
2023-05-19T09:41:47.679Z,55.20
2023-05-19T09:44:29.708Z,55.50
2023-05-19T09:46:58.312Z,55.50
2023-05-19T09:49:31.162Z,55.70
2023-05-19T09:51:58.724Z,55.50
2023-05-19T09:54:28.402Z,55.50
2023-05-19T09:56:59.251Z,55.70
2023-05-19T09:59:28.521Z,55.40
2023-05-19T10:01:59.680Z,55.30
2023-05-19T10:04:28.629Z,55.30
2023-05-19T10:06:59.421Z,55.40
2023-05-19T10:09:28.830Z,55.60
2023-05-19T10:11:57.278Z,55.70
2023-05-19T10:14:30.920Z,55.90
2023-05-19T10:16:59.190Z,56.00
2023-05-19T10:19:29.322Z,56.30
2023-05-19T10:21:57.213Z,56.60
2023-05-19T10:24:24.054Z,56.60
2023-05-19T10:27:17.866Z,56.50
2023-05-19T10:29:49.757Z,56.20
2023-05-19T10:32:24.799Z,56.20
2023-05-19T10:35:12.732Z,56.60
2023-05-19T10:38:13.359Z,56.20
2023-05-19T10:41:07.295Z,57.00
2023-05-19T10:43:39.936Z,57.00
2023-05-19T10:46:06.935Z,57.20
2023-05-19T10:48:37.201Z,57.70
2023-05-19T10:51:04.765Z,57.10
2023-05-19T10:53:35.083Z,58.00
2023-05-19T10:56:03.953Z,58.40
2023-05-19T10:58:37.853Z,58.70
2023-05-19T11:01:09.966Z,59.10
2023-05-19T11:03:50.136Z,59.70
2023-05-19T11:06:33.079Z,60.80
2023-05-19T11:09:02.213Z,60.50
2023-05-19T11:11:48.603Z,60.60
2023-05-19T11:14:25.782Z,60.50
2023-05-19T11:16:56.461Z,60.40
2023-05-19T11:19:31.883Z,60.30
2023-05-19T11:22:09.152Z,58.80
2023-05-19T11:24:49.924Z,59.00
2023-05-19T11:27:32.683Z,59.20
2023-05-19T11:30:14.867Z,59.20
2023-05-19T11:32:44.654Z,58.40
2023-05-19T11:35:11.961Z,0.00
2023-05-19T11:37:40.684Z,58.70
2023-05-19T11:40:08.291Z,57.10
2023-05-19T11:42:36.990Z,57.40
2023-05-19T11:45:05.039Z,57.80
2023-05-19T11:47:42.609Z,57.40
2023-05-19T11:50:20.289Z,57.50
2023-05-19T11:52:47.637Z,58.60
2023-05-19T11:55:18.280Z,59.20
2023-05-19T11:58:11.422Z,58.70
2023-05-19T12:00:41.114Z,58.80
2023-05-19T12:03:09.003Z,58.70
2023-05-19T12:05:45.713Z,58.70
2023-05-19T12:08:13.105Z,58.80
2023-05-19T12:10:40.991Z,58.30
2023-05-19T12:13:11.032Z,58.50
2023-05-19T12:15:38.844Z,58.40
2023-05-19T12:18:06.694Z,58.20
2023-05-19T12:20:37.674Z,57.80
2023-05-19T12:23:05.076Z,57.30
2023-05-19T12:25:32.847Z,57.80
2023-05-19T12:28:02.834Z,58.60
2023-05-19T12:30:31.166Z,59.40
2023-05-19T12:32:58.524Z,59.60
2023-05-19T12:35:36.023Z,59.30
2023-05-19T12:38:04.905Z,59.70
2023-05-19T12:40:33.397Z,59.60
2023-05-19T12:43:00.429Z,59.90
2023-05-19T12:45:28.683Z,60.40
2023-05-19T12:47:56.722Z,60.40
2023-05-19T12:50:31.380Z,60.90
2023-05-19T12:52:59.935Z,60.50
2023-05-19T12:55:26.944Z,61.40
2023-05-19T12:57:56.945Z,62.20
2023-05-19T13:00:27.711Z,63.10
2023-05-19T13:02:55.984Z,63.90
2023-05-19T13:05:23.971Z,65.50
2023-05-19T13:07:54.569Z,65.80
2023-05-19T13:10:21.436Z,66.40
2023-05-19T13:12:48.236Z,65.90
2023-05-19T13:15:15.291Z,65.80
2023-05-19T13:17:42.140Z,66.70
2023-05-19T13:20:09.437Z,67.20
2023-05-19T13:22:36.217Z,67.20
2023-05-19T13:25:03.055Z,68.30
2023-05-19T13:27:29.931Z,69.50
2023-05-19T13:29:56.826Z,69.70
2023-05-19T13:32:24.077Z,69.40
2023-05-19T13:34:50.978Z,69.70
2023-05-19T13:37:17.872Z,70.50
2023-05-19T13:39:44.921Z,71.20
2023-05-19T13:42:11.691Z,71.90
2023-05-19T13:44:38.521Z,72.30
2023-05-19T13:47:05.550Z,72.70
2023-05-19T13:49:32.334Z,73.00
2023-05-19T13:51:59.919Z,73.50
2023-05-19T13:54:27.208Z,73.60
2023-05-19T13:56:54.157Z,74.30
2023-05-19T13:59:23.820Z,74.30
2023-05-19T14:01:50.681Z,74.60
2023-05-19T14:04:18.529Z,74.60
2023-05-19T14:06:46.687Z,75.00
2023-05-19T14:09:13.550Z,75.10
2023-05-19T14:11:40.401Z,75.40
2023-05-19T14:14:08.396Z,75.80
2023-05-19T14:16:38.127Z,76.30
2023-05-19T14:19:05.186Z,76.90
2023-05-19T14:21:32.607Z,77.20
2023-05-19T14:23:59.461Z,77.00
2023-05-19T14:26:27.513Z,77.00
2023-05-19T14:28:57.064Z,77.20
2023-05-19T14:31:24.250Z,77.30
2023-05-19T14:33:51.948Z,77.10
2023-05-19T14:36:19.083Z,76.70
2023-05-19T14:38:45.893Z,77.00
2023-05-19T14:41:13.000Z,77.00
2023-05-19T14:43:42.156Z,77.20
2023-05-19T14:46:09.037Z,77.10
2023-05-19T14:48:35.956Z,77.60
2023-05-19T14:51:02.777Z,77.30
2023-05-19T14:53:29.577Z,78.00
2023-05-19T14:55:56.469Z,78.00
2023-05-19T14:58:28.958Z,77.70
2023-05-19T15:00:59.155Z,78.50
2023-05-19T15:03:26.089Z,77.60
2023-05-19T15:05:53.010Z,77.20
2023-05-19T15:08:19.755Z,77.30
2023-05-19T15:10:50.365Z,77.60
2023-05-19T15:13:18.974Z,78.30
2023-05-19T15:15:46.026Z,78.00
2023-05-19T15:18:13.127Z,78.90
2023-05-19T15:20:40.141Z,79.00
2023-05-19T15:23:06.994Z,79.00
2023-05-19T15:25:33.779Z,78.20
2023-05-19T15:28:00.519Z,78.60
2023-05-19T15:30:27.299Z,79.10
2023-05-19T15:32:54.218Z,78.90
2023-05-19T15:35:21.114Z,78.30
2023-05-19T15:37:47.887Z,78.90
2023-05-19T15:40:14.793Z,78.80
2023-05-19T15:42:41.592Z,78.60
2023-05-19T15:45:09.201Z,79.50
2023-05-19T15:47:36.281Z,79.60
2023-05-19T15:50:03.343Z,80.40
2023-05-19T15:52:30.138Z,80.50
2023-05-19T15:54:59.102Z,80.80
2023-05-19T15:57:26.136Z,80.10
2023-05-19T15:59:52.879Z,80.60
2023-05-19T16:02:19.806Z,80.60
2023-05-19T16:04:46.760Z,81.20
2023-05-19T16:07:13.679Z,81.10
2023-05-19T16:09:40.454Z,80.80
2023-05-19T16:12:07.507Z,81.20
2023-05-19T16:14:36.572Z,81.30
2023-05-19T16:17:04.826Z,81.40
2023-05-19T16:19:31.956Z,81.90
2023-05-19T16:21:59.130Z,81.50
2023-05-19T16:24:25.857Z,81.90
2023-05-19T16:26:53.782Z,81.90
2023-05-19T16:29:22.971Z,81.70
2023-05-19T16:31:49.779Z,82.20
2023-05-19T16:34:16.930Z,82.10
2023-05-19T16:36:46.807Z,82.20
2023-05-19T16:39:13.838Z,82.60
2023-05-19T16:41:40.816Z,83.10
2023-05-19T16:44:07.735Z,83.20
2023-05-19T16:46:35.003Z,83.20
2023-05-19T16:49:04.852Z,83.00
2023-05-19T16:51:31.789Z,82.30
2023-05-19T16:53:58.593Z,82.00
2023-05-19T16:56:25.886Z,82.00
2023-05-19T16:58:54.601Z,82.50
2023-05-19T17:01:21.752Z,82.50
2023-05-19T17:03:48.647Z,82.40
2023-05-19T17:06:16.165Z,82.80
2023-05-19T17:08:42.985Z,82.50
2023-05-19T17:11:09.927Z,82.30
2023-05-19T17:13:36.805Z,81.70
2023-05-19T17:16:03.682Z,81.60
2023-05-19T17:18:31.383Z,81.80
2023-05-19T17:21:03.346Z,81.90
2023-05-19T17:23:30.104Z,82.10
2023-05-19T17:25:57.100Z,82.20
2023-05-19T17:28:23.996Z,82.50
2023-05-19T17:30:51.061Z,82.50
2023-05-19T17:33:17.854Z,82.20
2023-05-19T17:35:45.241Z,82.40
2023-05-19T17:38:12.100Z,82.80
2023-05-19T17:40:41.879Z,83.10
2023-05-19T17:43:08.997Z,83.10
2023-05-19T17:45:35.840Z,83.20
2023-05-19T17:48:02.726Z,83.40
2023-05-19T17:50:29.643Z,83.20
2023-05-19T17:52:56.710Z,83.00
2023-05-19T17:55:28.070Z,82.70
2023-05-19T17:57:55.034Z,82.40
2023-05-19T18:00:22.419Z,83.00
2023-05-19T18:02:49.789Z,83.30
2023-05-19T18:05:17.117Z,83.40
2023-05-19T18:07:44.746Z,83.40
2023-05-19T18:10:14.225Z,84.00
2023-05-19T18:12:41.107Z,84.10
2023-05-19T18:15:08.268Z,84.20
2023-05-19T18:17:35.078Z,83.80
2023-05-19T18:20:02.069Z,84.00
2023-05-19T18:22:28.785Z,84.10
2023-05-19T18:24:57.602Z,84.20
2023-05-19T18:27:24.456Z,84.40
2023-05-19T18:29:51.365Z,84.50
2023-05-19T18:32:18.180Z,84.50
2023-05-19T18:34:45.064Z,84.50
2023-05-19T18:37:11.957Z,84.10
2023-05-19T18:39:38.744Z,84.10
2023-05-19T18:42:06.120Z,84.30
2023-05-19T18:44:33.893Z,84.40
2023-05-19T18:47:01.161Z,84.50
2023-05-19T18:49:27.885Z,84.60
2023-05-19T18:51:54.677Z,84.70
2023-05-19T18:54:21.959Z,84.90
2023-05-19T18:56:48.882Z,85.00
2023-05-19T18:59:16.295Z,85.10
2023-05-19T19:01:43.456Z,84.90
2023-05-19T19:04:10.660Z,85.00
2023-05-19T19:06:37.500Z,84.70
2023-05-19T19:09:04.642Z,84.90
2023-05-19T19:11:32.145Z,85.20
2023-05-19T19:13:59.517Z,85.40
2023-05-19T19:16:29.038Z,85.40
2023-05-19T19:18:56.087Z,85.50
2023-05-19T19:21:26.555Z,85.10
2023-05-19T19:23:56.971Z,84.30
2023-05-19T19:26:29.022Z,84.50
2023-05-19T19:28:57.812Z,84.50
2023-05-19T19:31:30.959Z,84.70
2023-05-19T19:34:00.993Z,84.50
2023-05-19T19:36:28.073Z,84.30
2023-05-19T19:38:54.921Z,84.50
2023-05-19T19:41:22.096Z,84.40
2023-05-19T19:43:49.006Z,84.40
2023-05-19T19:46:16.228Z,85.00
2023-05-19T19:48:43.754Z,85.20
2023-05-19T19:51:11.167Z,85.30
2023-05-19T19:53:38.179Z,85.50
2023-05-19T19:56:06.578Z,85.80
2023-05-19T19:58:34.310Z,86.00
2023-05-19T20:01:03.542Z,86.20
2023-05-19T20:03:31.717Z,86.40
2023-05-19T20:05:59.184Z,86.40
2023-05-19T20:08:27.434Z,86.00
2023-05-19T20:10:55.126Z,86.00
2023-05-19T20:13:22.289Z,86.00
2023-05-19T20:15:49.305Z,84.30
2023-05-19T20:18:17.261Z,0.00
2023-05-19T20:20:45.505Z,82.50
2023-05-19T20:23:14.536Z,81.70
2023-05-19T20:25:50.974Z,81.40
2023-05-19T20:28:23.229Z,81.30
2023-05-19T20:30:51.225Z,81.00
2023-05-19T20:33:18.244Z,81.20
2023-05-19T20:35:45.239Z,81.70
2023-05-19T20:38:12.069Z,81.50
2023-05-19T20:40:38.849Z,81.30
2023-05-19T20:43:08.242Z,81.00
2023-05-19T20:45:35.225Z,80.60
2023-05-19T20:48:03.705Z,80.70
2023-05-19T20:50:30.817Z,80.50
2023-05-19T20:52:57.711Z,80.30
2023-05-19T20:55:24.546Z,80.40
2023-05-19T20:57:51.331Z,80.30
2023-05-19T21:00:18.495Z,80.50
2023-05-19T21:02:45.457Z,80.30
2023-05-19T21:05:12.505Z,80.10
2023-05-19T21:07:39.349Z,80.00
2023-05-19T21:10:06.920Z,80.50
2023-05-19T21:12:34.333Z,81.10
2023-05-19T21:15:01.920Z,80.50
2023-05-19T21:17:28.868Z,80.60
2023-05-19T21:19:58.096Z,80.30
2023-05-19T21:22:26.756Z,80.50
2023-05-19T21:24:56.684Z,80.80
2023-05-19T21:27:23.793Z,81.40
2023-05-19T21:29:54.246Z,81.40
2023-05-19T21:32:21.810Z,81.40
2023-05-19T21:34:48.727Z,81.10
2023-05-19T21:37:17.321Z,80.20
2023-05-19T21:39:44.660Z,80.70
2023-05-19T21:42:11.595Z,80.80
2023-05-19T21:44:38.470Z,80.50
2023-05-19T21:47:05.398Z,80.70
2023-05-19T21:49:32.246Z,80.40
2023-05-19T21:51:59.043Z,80.60
2023-05-19T21:54:25.922Z,79.80
2023-05-19T21:56:52.682Z,79.90
2023-05-19T21:59:23.130Z,80.50
2023-05-19T22:01:50.363Z,80.60
2023-05-19T22:04:18.489Z,81.00
2023-05-19T22:06:46.074Z,80.90
2023-05-19T22:09:13.371Z,78.90
2023-05-19T22:11:40.525Z,79.10
2023-05-19T22:14:07.310Z,80.10
2023-05-19T22:16:35.141Z,80.60
2023-05-19T22:19:02.123Z,81.00
2023-05-19T22:21:29.035Z,81.20
2023-05-19T22:23:55.848Z,80.80
2023-05-19T22:26:22.774Z,78.90
2023-05-19T22:28:50.399Z,78.90
2023-05-19T22:31:17.681Z,78.90
2023-05-19T22:33:44.656Z,77.70
2023-05-19T22:36:11.568Z,77.10
2023-05-19T22:38:38.477Z,77.60
2023-05-19T22:41:05.495Z,78.40
2023-05-19T22:43:32.320Z,78.60
2023-05-19T22:45:59.222Z,78.70
2023-05-19T22:48:26.111Z,77.70
2023-05-19T22:50:53.109Z,77.90
2023-05-19T22:53:19.861Z,0.00
2023-05-19T22:55:46.785Z,77.20
2023-05-19T22:58:13.604Z,76.20
2023-05-19T23:00:40.525Z,74.90
2023-05-19T23:03:07.344Z,0.00
2023-05-19T23:05:34.746Z,75.70
2023-05-19T23:08:01.933Z,74.50
2023-05-19T23:10:28.872Z,73.00
2023-05-19T23:12:55.692Z,71.90
2023-05-19T23:15:22.448Z,72.60
2023-05-19T23:17:49.585Z,73.20
2023-05-19T23:20:16.501Z,72.80
2023-05-19T23:22:43.262Z,71.70
2023-05-19T23:25:10.238Z,72.10
2023-05-19T23:27:37.284Z,70.80
2023-05-19T23:30:07.575Z,71.30
2023-05-19T23:32:34.848Z,70.90
2023-05-19T23:35:16.286Z,70.20
2023-05-19T23:37:43.229Z,69.30
2023-05-19T23:40:11.554Z,69.80
2023-05-19T23:42:38.426Z,70.90
2023-05-19T23:45:06.183Z,71.10
2023-05-19T23:47:33.111Z,70.00
2023-05-19T23:49:59.949Z,70.20
2023-05-19T23:52:26.757Z,68.80
2023-05-19T23:54:53.602Z,68.00
2023-05-19T23:57:20.436Z,68.40
2023-05-19T23:59:47.330Z,68.70
